createdAt,value
2023-04-01T00:00:37.012Z,10.96
2023-04-01T00:03:39.805Z,10.96
2023-04-01T00:06:42.789Z,10.97
2023-04-01T00:09:45.979Z,10.93
2023-04-01T00:12:48.929Z,10.90
2023-04-01T00:15:54.630Z,10.95
2023-04-01T00:18:57.631Z,10.92
2023-04-01T00:22:00.968Z,10.92
2023-04-01T00:25:04.351Z,10.97
2023-04-01T00:28:07.222Z,10.92
2023-04-01T00:31:13.224Z,10.93
2023-04-01T00:34:16.213Z,10.96
2023-04-01T00:37:19.286Z,10.96
2023-04-01T00:40:29.143Z,10.99
2023-04-01T00:43:32.063Z,10.93
2023-04-01T00:46:36.645Z,10.96
2023-04-01T00:49:41.866Z,10.94
2023-04-01T00:52:45.392Z,10.91
2023-04-01T00:55:54.106Z,10.96
2023-04-01T00:59:01.234Z,10.95
2023-04-01T01:02:07.874Z,10.91
2023-04-01T01:05:13.811Z,10.89
2023-04-01T01:08:22.987Z,10.90
2023-04-01T01:11:37.015Z,10.89
2023-04-01T01:14:57.479Z,10.90
2023-04-01T01:18:10.190Z,10.90
2023-04-01T01:21:40.090Z,10.95
2023-04-01T01:24:56.688Z,10.91
2023-04-01T01:28:14.998Z,10.92
2023-04-01T01:31:25.867Z,10.95
2023-04-01T01:34:36.663Z,10.92
2023-04-01T01:37:43.185Z,10.95
2023-04-01T01:40:49.903Z,10.91
2023-04-01T01:43:54.523Z,10.96
2023-04-01T01:46:58.599Z,10.91
2023-04-01T01:50:02.909Z,10.90
2023-04-01T01:53:08.789Z,10.90
2023-04-01T01:56:13.648Z,10.89
2023-04-01T01:59:19.114Z,10.90
2023-04-01T02:02:23.767Z,10.90
2023-04-01T02:05:28.410Z,10.89
2023-04-01T02:08:37.578Z,10.87
2023-04-01T02:11:46.270Z,10.90
2023-04-01T02:14:54.095Z,10.91
2023-04-01T02:17:58.194Z,10.90
2023-04-01T02:21:02.765Z,10.90
2023-04-01T02:24:12.087Z,10.88
2023-04-01T02:27:15.014Z,10.89
2023-04-01T02:30:19.314Z,10.89
2023-04-01T02:33:23.045Z,10.91
2023-04-01T02:36:26.365Z,10.90
2023-04-01T02:39:30.688Z,10.87
2023-04-01T02:42:33.549Z,10.84
2023-04-01T02:45:36.320Z,10.82
2023-04-01T02:48:39.215Z,10.82
2023-04-01T02:51:42.040Z,10.83
2023-04-01T02:54:46.310Z,10.83
2023-04-01T02:57:49.160Z,10.85
2023-04-01T03:00:51.991Z,10.78
2023-04-01T03:03:55.046Z,10.75
2023-04-01T03:06:57.748Z,10.74
2023-04-01T03:10:01.996Z,10.74
2023-04-01T03:13:05.035Z,10.77
2023-04-01T03:16:08.150Z,10.79
2023-04-01T03:19:11.046Z,10.80
2023-04-01T03:22:13.760Z,10.82
2023-04-01T03:25:18.038Z,10.82
2023-04-01T03:28:20.746Z,10.84
2023-04-01T03:31:23.991Z,10.74
2023-04-01T03:34:27.216Z,10.73
2023-04-01T03:37:29.970Z,10.71
2023-04-01T03:40:38.163Z,10.71
2023-04-01T03:43:40.917Z,10.65
2023-04-01T03:46:43.860Z,10.63
2023-04-01T03:49:46.645Z,10.64
2023-04-01T03:52:49.356Z,10.60
2023-04-01T03:55:53.558Z,10.61
2023-04-01T03:58:56.397Z,10.65
2023-04-01T04:01:59.349Z,10.62
2023-04-01T04:05:02.084Z,10.60
2023-04-01T04:08:05.216Z,10.58
2023-04-01T04:11:09.675Z,10.58
2023-04-01T04:14:12.397Z,10.51
2023-04-01T04:17:17.252Z,10.55
2023-04-01T04:20:20.541Z,10.59
2023-04-01T04:23:23.919Z,10.69
2023-04-01T04:26:28.429Z,10.73
2023-04-01T04:29:31.774Z,10.72
2023-04-01T04:32:34.618Z,10.71
2023-04-01T04:35:37.367Z,10.71
2023-04-01T04:38:40.224Z,10.59
2023-04-01T04:41:44.597Z,10.62
2023-04-01T04:44:47.274Z,10.59
2023-04-01T04:47:50.088Z,10.52
2023-04-01T04:50:53.321Z,10.43
2023-04-01T04:53:56.144Z,10.44
2023-04-01T04:57:00.403Z,10.45
2023-04-01T05:00:03.216Z,10.53
2023-04-01T05:03:06.306Z,10.61
2023-04-01T05:06:10.721Z,10.62
2023-04-01T05:09:13.639Z,10.62
2023-04-01T05:12:17.770Z,10.58
2023-04-01T05:15:20.810Z,10.54
2023-04-01T05:18:23.710Z,10.53
2023-04-01T05:21:26.457Z,10.58
2023-04-01T05:24:29.365Z,10.65
2023-04-01T05:27:33.667Z,10.67
2023-04-01T05:30:36.602Z,10.67
2023-04-01T05:33:39.445Z,10.71
2023-04-01T05:36:42.626Z,10.73
2023-04-01T05:39:45.562Z,10.78
2023-04-01T05:42:49.664Z,10.86
2023-04-01T05:45:52.525Z,10.90
2023-04-01T05:48:55.408Z,10.83
2023-04-01T05:51:58.519Z,10.92
2023-04-01T05:55:01.430Z,10.96
2023-04-01T05:58:05.701Z,10.96
2023-04-01T06:01:14.152Z,10.97
2023-04-01T06:04:20.242Z,11.00
2023-04-01T06:07:23.092Z,11.01
2023-04-01T06:10:50.446Z,11.02
2023-04-01T06:14:12.123Z,11.04
2023-04-01T06:17:29.053Z,11.06
2023-04-01T06:20:44.001Z,11.09
2023-04-01T06:23:59.738Z,11.10
2023-04-01T06:27:13.930Z,11.13
2023-04-01T06:30:35.139Z,11.16
2023-04-01T06:33:52.689Z,11.18
2023-04-01T06:37:13.318Z,11.20
2023-04-01T06:40:33.709Z,11.25
2023-04-01T06:43:45.703Z,11.35
2023-04-01T06:46:59.479Z,11.32
2023-04-01T06:50:13.658Z,11.26
2023-04-01T06:53:23.532Z,11.32
2023-04-01T06:56:29.135Z,11.40
2023-04-01T06:59:36.089Z,11.41
2023-04-01T07:02:43.658Z,11.46
2023-04-01T07:05:46.580Z,11.50
2023-04-01T07:08:51.639Z,11.49
2023-04-01T07:11:58.933Z,11.55
2023-04-01T07:15:06.510Z,11.60
2023-04-01T07:18:17.668Z,11.55
2023-04-01T07:21:31.899Z,11.51
2023-04-01T07:24:36.721Z,11.60
2023-04-01T07:27:39.596Z,11.62
2023-04-01T07:30:52.527Z,11.72
2023-04-01T07:34:05.690Z,11.75
2023-04-01T07:37:13.023Z,11.79
2023-04-01T07:40:28.564Z,11.85
2023-04-01T07:44:04.713Z,12.02
2023-04-01T07:47:34.422Z,12.00
2023-04-01T07:50:43.416Z,12.07
2023-04-01T07:53:51.322Z,12.08
2023-04-01T07:57:00.862Z,12.13
2023-04-01T08:00:11.967Z,12.20
2023-04-01T08:03:36.032Z,12.22
2023-04-01T08:06:46.682Z,12.30
2023-04-01T08:09:56.213Z,12.31
2023-04-01T08:13:08.230Z,12.15
2023-04-01T08:16:17.028Z,12.07
2023-04-01T08:19:31.418Z,12.01
2023-04-01T08:22:42.097Z,11.75
2023-04-01T08:25:52.335Z,11.62
2023-04-01T08:29:01.501Z,11.32
2023-04-01T08:32:12.600Z,11.19
2023-04-01T08:35:27.061Z,11.34
2023-04-01T08:38:37.181Z,11.06
2023-04-01T08:42:02.912Z,10.82
2023-04-01T08:45:27.700Z,10.92
2023-04-01T08:48:52.951Z,10.96
2023-04-01T08:52:18.164Z,11.08
2023-04-01T08:55:58.487Z,10.93
2023-04-01T08:59:26.639Z,11.11
2023-04-01T09:02:52.288Z,11.03
2023-04-01T09:06:23.896Z,11.06
2023-04-01T09:09:57.294Z,11.20
2023-04-01T09:13:16.345Z,11.02
2023-04-01T09:16:39.527Z,11.12
2023-04-01T09:20:00.538Z,11.31
2023-04-01T09:23:19.846Z,11.09
2023-04-01T09:26:39.521Z,11.09
2023-04-01T09:30:22.524Z,11.07
2023-04-01T09:33:59.691Z,11.03
2023-04-01T09:37:20.925Z,10.80
2023-04-01T09:40:33.682Z,10.91
2023-04-01T09:43:55.824Z,10.76
2023-04-01T09:47:13.522Z,10.80
2023-04-01T09:50:31.943Z,10.80
2023-04-01T09:53:54.324Z,10.58
2023-04-01T09:57:38.834Z,10.69
2023-04-01T10:00:57.241Z,10.66
2023-04-01T10:04:28.902Z,10.74
2023-04-01T10:07:55.676Z,10.68
2023-04-01T10:11:16.318Z,10.73
2023-04-01T10:14:42.109Z,10.87
2023-04-01T10:18:10.894Z,10.65
2023-04-01T10:21:58.325Z,10.43
2023-04-01T10:25:37.377Z,10.82
2023-04-01T10:29:27.426Z,10.71
2023-04-01T10:33:16.941Z,10.73
2023-04-01T10:36:48.103Z,10.68
2023-04-01T10:40:44.528Z,10.66
2023-04-01T10:44:13.850Z,10.42
2023-04-01T10:47:42.008Z,10.38
2023-04-01T10:51:07.432Z,10.25
2023-04-01T10:54:23.233Z,10.23
2023-04-01T10:58:00.927Z,10.13
2023-04-01T11:01:54.896Z,10.18
2023-04-01T11:05:38.227Z,10.10
2023-04-01T11:09:28.604Z,10.27
2023-04-01T11:13:12.278Z,10.42
2023-04-01T11:16:52.752Z,10.37
2023-04-01T11:20:13.154Z,10.47
2023-04-01T11:23:54.985Z,10.43
2023-04-01T11:27:24.401Z,10.47
2023-04-01T11:30:46.365Z,10.46
2023-04-01T11:33:56.941Z,10.33
2023-04-01T11:37:09.118Z,10.18
2023-04-01T11:40:30.236Z,10.33
2023-04-01T11:43:39.681Z,10.32
2023-04-01T11:46:51.545Z,10.25
2023-04-01T11:50:05.167Z,10.05
2023-04-01T11:53:25.380Z,10.06
2023-04-01T11:56:52.268Z,10.33
2023-04-01T12:00:17.801Z,10.24
2023-04-01T12:03:37.482Z,10.27
2023-04-01T12:06:47.154Z,9.95
2023-04-01T12:09:57.860Z,9.78
2023-04-01T12:13:07.559Z,10.02
2023-04-01T12:16:22.904Z,9.77
2023-04-01T12:19:37.322Z,9.77
2023-04-01T12:22:51.447Z,9.78
2023-04-01T12:26:06.426Z,9.63
2023-04-01T12:29:39.621Z,9.54
2023-04-01T12:32:48.161Z,9.61
2023-04-01T12:36:03.761Z,9.87
2023-04-01T12:39:35.081Z,9.58
2023-04-01T12:42:51.335Z,9.78
2023-04-01T12:46:05.707Z,9.48
2023-04-01T12:49:25.135Z,9.55
2023-04-01T12:52:39.660Z,9.44
2023-04-01T12:55:43.744Z,9.44
2023-04-01T12:59:16.599Z,9.43
2023-04-01T13:02:34.137Z,9.55
2023-04-01T13:06:06.468Z,9.62
2023-04-01T13:09:20.725Z,9.66
2023-04-01T13:12:39.289Z,9.16
2023-04-01T13:15:46.849Z,9.22
2023-04-01T13:19:00.827Z,9.39
2023-04-01T13:22:13.093Z,9.33
2023-04-01T13:25:28.904Z,9.40
2023-04-01T13:28:38.155Z,9.29
2023-04-01T13:32:05.585Z,9.30
2023-04-01T13:35:24.105Z,9.19
2023-04-01T13:38:59.732Z,9.18
2023-04-01T13:42:15.042Z,9.33
2023-04-01T13:45:23.342Z,9.23
2023-04-01T13:48:51.306Z,8.95
2023-04-01T13:52:19.756Z,8.89
2023-04-01T13:55:36.374Z,9.14
2023-04-01T13:58:57.728Z,9.02
2023-04-01T14:02:30.208Z,8.90
2023-04-01T14:05:53.645Z,8.92
2023-04-01T14:09:19.920Z,8.89
2023-04-01T14:12:31.994Z,8.98
2023-04-01T14:15:49.417Z,8.98
2023-04-01T14:19:05.098Z,8.93
2023-04-01T14:22:19.284Z,8.82
2023-04-01T14:25:45.502Z,8.63
2023-04-01T14:28:55.817Z,8.60
2023-04-01T14:32:08.811Z,8.65
2023-04-01T14:35:25.925Z,8.60
2023-04-01T14:38:41.796Z,8.39
2023-04-01T14:41:50.543Z,8.46
2023-04-01T14:45:27.116Z,8.56
2023-04-01T14:48:33.933Z,8.53
2023-04-01T14:51:41.025Z,8.46
2023-04-01T14:54:46.576Z,8.50
2023-04-01T14:58:06.644Z,8.49
2023-04-01T15:01:24.427Z,8.39
2023-04-01T15:04:47.236Z,8.36
2023-04-01T15:08:11.906Z,8.45
2023-04-01T15:11:27.190Z,8.40
2023-04-01T15:14:53.838Z,8.24
2023-04-01T15:18:06.348Z,8.20
2023-04-01T15:21:23.607Z,8.12
2023-04-01T15:24:43.207Z,8.11
2023-04-01T15:27:53.581Z,7.90
2023-04-01T15:31:02.739Z,7.94
2023-04-01T15:34:24.068Z,7.98
2023-04-01T15:37:40.924Z,8.03
2023-04-01T15:40:49.923Z,8.26
2023-04-01T15:43:54.075Z,8.09
2023-04-01T15:47:00.338Z,8.03
2023-04-01T15:50:28.322Z,7.97
2023-04-01T15:53:48.733Z,7.82
2023-04-01T15:57:04.839Z,7.84
2023-04-01T16:00:15.597Z,7.98
2023-04-01T16:03:35.457Z,7.80
2023-04-01T16:07:06.169Z,7.79
2023-04-01T16:10:21.643Z,7.78
2023-04-01T16:13:43.713Z,7.81
2023-04-01T16:16:59.362Z,7.73
2023-04-01T16:20:15.623Z,7.66
2023-04-01T16:23:27.230Z,7.77
2023-04-01T16:26:38.462Z,7.59
2023-04-01T16:29:50.207Z,7.59
2023-04-01T16:32:57.032Z,7.40
2023-04-01T16:36:08.356Z,7.52
2023-04-01T16:39:33.491Z,7.47
2023-04-01T16:42:45.539Z,7.45
2023-04-01T16:45:59.008Z,7.50
2023-04-01T16:49:06.668Z,7.53
2023-04-01T16:52:18.819Z,7.48
2023-04-01T16:55:23.495Z,7.36
2023-04-01T16:58:29.707Z,7.38
2023-04-01T17:01:42.801Z,7.39
2023-04-01T17:04:49.039Z,7.38
2023-04-01T17:08:13.314Z,7.24
2023-04-01T17:11:21.896Z,7.23
2023-04-01T17:14:30.664Z,7.02
2023-04-01T17:17:40.796Z,6.95
2023-04-01T17:20:48.626Z,7.01
2023-04-01T17:23:55.858Z,7.14
2023-04-01T17:27:08.610Z,7.08
2023-04-01T17:30:21.629Z,7.09
2023-04-01T17:33:59.573Z,7.18
2023-04-01T17:37:11.243Z,6.97
2023-04-01T17:40:36.316Z,6.91
2023-04-01T17:43:46.891Z,6.90
2023-04-01T17:47:15.568Z,6.72
2023-04-01T17:50:31.792Z,6.70
2023-04-01T17:53:45.738Z,6.74
2023-04-01T17:57:04.362Z,6.55
2023-04-01T18:00:22.989Z,6.70
2023-04-01T18:03:54.297Z,6.74
2023-04-01T18:07:24.322Z,6.59
2023-04-01T18:10:33.526Z,6.59
2023-04-01T18:14:00.822Z,6.50
2023-04-01T18:17:25.898Z,6.48
2023-04-01T18:20:37.748Z,6.39
2023-04-01T18:23:59.151Z,6.42
2023-04-01T18:27:09.580Z,6.21
2023-04-01T18:30:18.321Z,6.36
2023-04-01T18:33:27.957Z,6.06
2023-04-01T18:36:42.595Z,6.19
2023-04-01T18:39:52.152Z,6.02
2023-04-01T18:43:07.573Z,6.03
2023-04-01T18:46:18.872Z,6.00
2023-04-01T18:49:28.177Z,6.20
2023-04-01T18:52:37.145Z,6.11
2023-04-01T18:55:44.114Z,6.10
2023-04-01T18:58:51.108Z,5.88
2023-04-01T19:02:05.163Z,6.29
2023-04-01T19:05:14.327Z,6.02
2023-04-01T19:08:27.206Z,5.95
2023-04-01T19:11:41.965Z,5.82
2023-04-01T19:14:55.988Z,5.95
2023-04-01T19:18:20.002Z,5.83
2023-04-01T19:21:28.487Z,5.87
2023-04-01T19:25:01.188Z,5.86
2023-04-01T19:28:17.856Z,5.79
2023-04-01T19:31:36.356Z,5.75
2023-04-01T19:34:51.957Z,5.77
2023-04-01T19:38:01.437Z,5.73
2023-04-01T19:41:16.975Z,5.62
2023-04-01T19:44:35.920Z,5.57
2023-04-01T19:47:53.230Z,5.75
2023-04-01T19:51:03.321Z,5.77
2023-04-01T19:54:21.581Z,5.80
2023-04-01T19:57:36.911Z,5.55
2023-04-01T20:00:44.124Z,5.52
2023-04-01T20:03:50.298Z,5.47
2023-04-01T20:06:59.427Z,5.48
2023-04-01T20:10:11.834Z,5.43
2023-04-01T20:13:24.763Z,5.51
2023-04-01T20:16:57.400Z,5.35
2023-04-01T20:20:02.599Z,5.26
2023-04-01T20:23:36.707Z,5.38
2023-04-01T20:26:43.247Z,5.40
2023-04-01T20:30:01.320Z,5.49
2023-04-01T20:33:26.340Z,5.38
2023-04-01T20:36:37.054Z,5.22
2023-04-01T20:40:01.118Z,5.12
2023-04-01T20:43:30.704Z,5.23
2023-04-01T20:46:47.083Z,4.94
2023-04-01T20:50:00.477Z,5.10
2023-04-01T20:53:10.866Z,5.04
2023-04-01T20:56:34.939Z,5.15
2023-04-01T21:00:00.066Z,5.04
2023-04-01T21:03:17.920Z,5.00
2023-04-01T21:06:46.855Z,4.98
2023-04-01T21:10:11.045Z,5.03
2023-04-01T21:13:35.556Z,4.99
2023-04-01T21:16:46.085Z,5.00
2023-04-01T21:20:07.514Z,4.80
2023-04-01T21:23:40.907Z,4.83
2023-04-01T21:26:54.410Z,4.77
2023-04-01T21:30:17.725Z,4.68
2023-04-01T21:33:43.374Z,4.69
2023-04-01T21:37:03.854Z,4.78
2023-04-01T21:40:34.718Z,5.04
2023-04-01T21:43:52.139Z,4.72
2023-04-01T21:47:17.156Z,4.95
2023-04-01T21:51:04.285Z,4.87
2023-04-01T21:54:33.134Z,4.78
2023-04-01T21:58:03.178Z,4.64
2023-04-01T22:01:24.054Z,4.68
2023-04-01T22:04:50.587Z,4.65
2023-04-01T22:08:02.830Z,4.54
2023-04-01T22:11:13.443Z,4.71
2023-04-01T22:14:22.800Z,4.68
2023-04-01T22:17:32.413Z,4.68
2023-04-01T22:20:46.335Z,4.77
2023-04-01T22:23:58.761Z,4.85
2023-04-01T22:27:08.269Z,4.67
2023-04-01T22:30:20.703Z,4.69
2023-04-01T22:33:34.066Z,4.82
2023-04-01T22:36:47.909Z,4.80
2023-04-01T22:40:12.515Z,4.74
2023-04-01T22:43:22.826Z,4.68
2023-04-01T22:46:46.106Z,4.72
2023-04-01T22:49:53.074Z,4.75
2023-04-01T22:53:02.932Z,4.69
2023-04-01T22:56:10.658Z,4.56
2023-04-01T22:59:21.178Z,4.72
2023-04-01T23:02:29.573Z,4.65
2023-04-01T23:05:33.869Z,4.68
2023-04-01T23:08:53.748Z,4.67
2023-04-01T23:11:59.749Z,4.63
2023-04-01T23:15:03.902Z,4.67
2023-04-01T23:18:22.198Z,4.46
2023-04-01T23:21:32.638Z,4.57
2023-04-01T23:24:43.141Z,4.52
2023-04-01T23:27:52.999Z,4.61
2023-04-01T23:30:56.098Z,4.55
2023-04-01T23:34:01.659Z,4.44
2023-04-01T23:37:07.553Z,4.46
2023-04-01T23:40:15.856Z,4.48
2023-04-01T23:43:26.782Z,4.42
2023-04-01T23:46:32.334Z,4.37
2023-04-01T23:49:40.836Z,4.40
2023-04-01T23:52:48.286Z,4.58
2023-04-01T23:55:54.045Z,4.46
2023-04-01T23:58:58.265Z,4.39
